Redcliff, Canada
Current Conditions -  °F | °C
As of 1:00 PM on Thursday 23 Oct 2014 (Local Time) from CYXH Reporting Station
Broken Clouds Broken Clouds  
Wind Chill: 16°   Ceiling: 12000
Heat Index: 16°   Visibility: 30mi
Dew Point:   Wind: 21mph
Humidity: 45%   Direction: 210°SSW
Pressure: 29.67"   Gusts: 28mph
Location:  50.08°N, 110.79°W
Report Text: CYXH 231900Z 21018G24KT 30SM BKN120 16/04 A2967 RMK AC7 SLP051 DENSITY ALT 3300FT
Loading
Personal Weather Stations






























Interactive Weather Map
Tropical Storm Tracking
New forecast layout! Learn more

10-Day Weather Forecast

Advertisements
Track Severe Weather on mobile